MSC Lea — 9HA2639 — position and weather

sailwx.info

Track history (hours):
 
Tides and Currents Weather Stations Pressure Air Temp Water Temp Dewpoint Dewpoint Depression Visibility Wind Speed Wind Dir Waves Ship Positions

MSC Lea

Last reported at 2016-Jun-26 04:09 UTC. Time now 2016-Jun-27 22:19 UTC.
Position N 32°47' E 029°18'.

Length 217 m; draft 7.5 m.

Type: Ship (hazmat cat A). MMSI: 215101000.

Date/timePositionNaut miles runAvg speedWind from/ knotsBaromVisibWave heightAir tempDewpointWater temp
2016-Jun-26 04:09N 32°47' E 029°18'914.8
2016-Jun-26 03:33N 32°43' E 029°28'1514.7
2016-Jun-26 02:33N 32°37' E 029°44'1514.4
2016-Jun-26 01:32N 32°31' E 029°60'1414.7
2016-Jun-26 00:33N 32°25' E 030°15'1614.9
2016-Jun-25 23:27N 32°19' E 030°33'1414.9
2016-Jun-25 22:32N 32°13' E 030°48'1514.9
2016-Jun-25 21:31N 32°07' E 031°04'1514.7
2016-Jun-25 20:29N 32°00' E 031°20'1514.6
2016-Jun-25 19:26N 31°55' E 031°37'1314.7
2016-Jun-25 18:33N 31°49' E 031°51'1414.1
2016-Jun-25 17:34N 31°41' E 032°04'1414.0
2016-Jun-25 16:32N 31°31' E 032°17'1311.6
2016-Jun-25 15:25N 31°19' E 032°22'6 0.3
2016-Jun-24 23:25N 31°15' E 032°18'6 7.5
2016-Jun-24 22:33N 31°20' E 032°22'4 3.5
2016-Jun-24 21:32N 31°22' E 032°18'0 0.0
2016-Jun-24 20:32N 31°21' E 032°18'0 0.0
2016-Jun-24 19:33N 31°21' E 032°18'0 0.0
2016-Jun-24 18:28N 31°21' E 032°18'0 0.0
2016-Jun-24 14:30N 31°21' E 032°18'0 0.0
2016-Jun-24 11:08N 31°21' E 032°18'0 0.0
2016-Jun-24 10:30N 31°21' E 032°18'0 0.0
2016-Jun-24 09:34N 31°21' E 032°18'0 0.0
2016-Jun-24 04:28N 31°22' E 032°18'0 0.0
2016-Jun-24 01:21N 31°22' E 032°18'0 0.0
2016-Jun-24 00:19N 31°21' E 032°18'0 0.0
2016-Jun-23 22:33N 31°22' E 032°18'8 7.4
2016-Jun-23 21:32N 31°29' E 032°21'3712.4
2016-Jun-23 18:32N 32°05' E 032°30'1715.7
2016-Jun-23 17:25N 32°22' E 032°24'1315.6
2016-Jun-23 16:33N 32°34' E 032°18'1615.7
2016-Jun-23 15:33N 32°49' E 032°12'1615.8
2016-Jun-23 14:33N 33°04' E 032°07'1815.4
2016-Jun-23 13:24N 33°21' E 032°00'1314.8
2016-Jun-23 12:32N 33°33' E 031°54'1414.7
2016-Jun-23 11:33N 33°47' E 031°50'1514.9
2016-Jun-23 10:33N 34°01' E 031°45'1515.2
2016-Jun-23 09:33N 34°16' E 031°39'1414.5
2016-Jun-23 08:33N 34°29' E 031°33'40 1.3
2016-Jun-22 02:24N 34°42' E 032°19'1214.0
2016-Jun-22 01:33N 34°33' E 032°29'1413.9
2016-Jun-22 00:33N 34°22' E 032°40'1413.7
2016-Jun-21 23:34N 34°12' E 032°51'1313.4
2016-Jun-21 22:34N 34°02' E 033°01'1313.2
2016-Jun-21 21:34N 33°51' E 033°11'1313.4
2016-Jun-21 20:34N 33°41' E 033°21'1413.5
2016-Jun-21 19:33N 33°30' E 033°32'1413.7
2016-Jun-21 18:34N 33°20' E 033°42'1413.9
2016-Jun-21 17:33N 33°09' E 033°53'1413.6
2016-Jun-21 16:33N 33°02' E 034°07'1514.6
2016-Jun-21 15:33N 32°59' E 034°24'1514.9
2016-Jun-21 14:34N 32°56' E 034°41'1515.0
2016-Jun-21 13:33N 32°52' E 034°58'4 3.4
2016-Jun-21 12:31N 32°49' E 035°01'0 0.0
2016-Jun-21 11:32N 32°49' E 035°01'0 0.0
2016-Jun-21 10:33N 32°49' E 035°01'0 0.0
2016-Jun-21 09:33N 32°49' E 035°01'0 0.0
2016-Jun-21 08:31N 32°49' E 035°01'0 0.0
2016-Jun-21 07:32N 32°49' E 035°01'0 0.0
2016-Jun-21 04:31N 32°49' E 035°01'0 0.0
2016-Jun-21 03:31N 32°49' E 035°01'0 0.0
2016-Jun-21 02:32N 32°49' E 035°01'1 1.0
2016-Jun-21 01:33N 32°50' E 035°01'1010.0
2016-Jun-21 00:33N 32°54' E 034°51'1313.0
2016-Jun-20 23:34N 32°56' E 034°35'1615.7
2016-Jun-20 22:34N 32°58' E 034°17'1615.8
2016-Jun-20 21:34N 33°03' E 033°59'1615.9
2016-Jun-20 20:34N 33°10' E 033°42'1616.0
2016-Jun-20 19:34N 33°17' E 033°25'1615.8
2016-Jun-20 18:34N 33°25' E 033°08'1515.2
2016-Jun-20 17:33N 33°32' E 032°52'1615.7
2016-Jun-20 16:34N 33°39' E 032°36'1616.0
2016-Jun-20 15:34N 33°47' E 032°19'1616.5
2016-Jun-20 14:34N 33°55' E 032°01'1716.8
2016-Jun-20 13:34N 34°02' E 031°43'1716.7
2016-Jun-20 12:33N 34°10' E 031°25'33415.2
2016-Jun-19 14:33N 37°28' E 025°52'84 2.1
2016-Jun-17 21:31N 37°34' E 024°06'1717.4
2016-Jun-17 20:33N 37°19' E 023°56'1717.2
2016-Jun-17 19:33N 37°04' E 023°45'1817.5
2016-Jun-17 18:33N 36°49' E 023°34'1817.8
2016-Jun-17 17:33N 36°33' E 023°23'23813.6
2016-Jun-17 00:06N 37°09' E 018°29'713.6
2016-Jun-16 23:33N 37°11' E 018°20'3113.9
2016-Jun-16 21:19N 37°20' E 017°43'1114.0
2016-Jun-16 20:33N 37°23' E 017°30'1414.0
2016-Jun-16 19:33N 37°26' E 017°13'1414.2
2016-Jun-16 18:33N 37°30' E 016°56'1414.0
2016-Jun-16 17:33N 37°34' E 016°38'1414.0
2016-Jun-16 16:33N 37°37' E 016°22'2713.7
2016-Jun-16 14:34N 37°46' E 015°49'1413.8
2016-Jun-16 13:33N 37°56' E 015°36'1212.5
2016-Jun-16 12:33N 38°08' E 015°34'1010.4
2016-Jun-16 11:33N 38°17' E 015°40'1010.0
2016-Jun-16 10:33N 38°25' E 015°49'5 5.2
2016-Jun-16 09:33N 38°27' E 015°54'0 0.0
2016-Jun-16 08:33N 38°27' E 015°54'0 0.0
2016-Jun-16 07:28N 38°27' E 015°54'0 0.0
2016-Jun-16 06:32N 38°27' E 015°54'0 0.0
2016-Jun-16 05:30N 38°27' E 015°54'0 0.0
2016-Jun-16 04:30N 38°27' E 015°54'  
Track history (hours):
 
Tides and Currents Weather Stations Pressure Air Temp Water Temp Dewpoint Dewpoint Depression Visibility Wind Speed Wind Dir Waves Ship Positions

MSC Lea

Last reported at 2016-Jun-26 04:09 UTC. Time now 2016-Jun-27 22:19 UTC.
Position N 32°47' E 029°18'.

Length 217 m; draft 7.5 m.

Type: Ship (hazmat cat A). MMSI: 215101000.

Date/timePositionNaut miles runAvg speedWind from/ knotsBaromVisibWave heightAir tempDewpointWater temp
2016-Jun-26 04:09N 32°47' E 029°18'914.8
2016-Jun-26 03:33N 32°43' E 029°28'1514.7
2016-Jun-26 02:33N 32°37' E 029°44'1514.4
2016-Jun-26 01:32N 32°31' E 029°60'1414.7
2016-Jun-26 00:33N 32°25' E 030°15'1614.9
2016-Jun-25 23:27N 32°19' E 030°33'1414.9
2016-Jun-25 22:32N 32°13' E 030°48'1514.9
2016-Jun-25 21:31N 32°07' E 031°04'1514.7
2016-Jun-25 20:29N 32°00' E 031°20'1514.6
2016-Jun-25 19:26N 31°55' E 031°37'1314.7
2016-Jun-25 18:33N 31°49' E 031°51'1414.1
2016-Jun-25 17:34N 31°41' E 032°04'1414.0
2016-Jun-25 16:32N 31°31' E 032°17'1311.6
2016-Jun-25 15:25N 31°19' E 032°22'6 0.3
2016-Jun-24 23:25N 31°15' E 032°18'6 7.5
2016-Jun-24 22:33N 31°20' E 032°22'4 3.5
2016-Jun-24 21:32N 31°22' E 032°18'0 0.0
2016-Jun-24 20:32N 31°21' E 032°18'0 0.0
2016-Jun-24 19:33N 31°21' E 032°18'0 0.0
2016-Jun-24 18:28N 31°21' E 032°18'0 0.0
2016-Jun-24 14:30N 31°21' E 032°18'0 0.0
2016-Jun-24 11:08N 31°21' E 032°18'0 0.0
2016-Jun-24 10:30N 31°21' E 032°18'0 0.0
2016-Jun-24 09:34N 31°21' E 032°18'0 0.0
2016-Jun-24 04:28N 31°22' E 032°18'0 0.0
2016-Jun-24 01:21N 31°22' E 032°18'0 0.0
2016-Jun-24 00:19N 31°21' E 032°18'0 0.0
2016-Jun-23 22:33N 31°22' E 032°18'8 7.4
2016-Jun-23 21:32N 31°29' E 032°21'3712.4
2016-Jun-23 18:32N 32°05' E 032°30'1715.7
2016-Jun-23 17:25N 32°22' E 032°24'1315.6
2016-Jun-23 16:33N 32°34' E 032°18'1615.7
2016-Jun-23 15:33N 32°49' E 032°12'1615.8
2016-Jun-23 14:33N 33°04' E 032°07'1815.4
2016-Jun-23 13:24N 33°21' E 032°00'1314.8
2016-Jun-23 12:32N 33°33' E 031°54'1414.7
2016-Jun-23 11:33N 33°47' E 031°50'1514.9
2016-Jun-23 10:33N 34°01' E 031°45'1515.2
2016-Jun-23 09:33N 34°16' E 031°39'1414.5
2016-Jun-23 08:33N 34°29' E 031°33'40 1.3
2016-Jun-22 02:24N 34°42' E 032°19'1214.0
2016-Jun-22 01:33N 34°33' E 032°29'1413.9
2016-Jun-22 00:33N 34°22' E 032°40'1413.7
2016-Jun-21 23:34N 34°12' E 032°51'1313.4
2016-Jun-21 22:34N 34°02' E 033°01'1313.2
2016-Jun-21 21:34N 33°51' E 033°11'1313.4
2016-Jun-21 20:34N 33°41' E 033°21'1413.5
2016-Jun-21 19:33N 33°30' E 033°32'1413.7
2016-Jun-21 18:34N 33°20' E 033°42'1413.9
2016-Jun-21 17:33N 33°09' E 033°53'1413.6
2016-Jun-21 16:33N 33°02' E 034°07'1514.6
2016-Jun-21 15:33N 32°59' E 034°24'1514.9
2016-Jun-21 14:34N 32°56' E 034°41'1515.0
2016-Jun-21 13:33N 32°52' E 034°58'4 3.4
2016-Jun-21 12:31N 32°49' E 035°01'0 0.0
2016-Jun-21 11:32N 32°49' E 035°01'0 0.0
2016-Jun-21 10:33N 32°49' E 035°01'0 0.0
2016-Jun-21 09:33N 32°49' E 035°01'0 0.0
2016-Jun-21 08:31N 32°49' E 035°01'0 0.0
2016-Jun-21 07:32N 32°49' E 035°01'0 0.0
2016-Jun-21 04:31N 32°49' E 035°01'0 0.0
2016-Jun-21 03:31N 32°49' E 035°01'0 0.0
2016-Jun-21 02:32N 32°49' E 035°01'1 1.0
2016-Jun-21 01:33N 32°50' E 035°01'1010.0
2016-Jun-21 00:33N 32°54' E 034°51'1313.0
2016-Jun-20 23:34N 32°56' E 034°35'1615.7
2016-Jun-20 22:34N 32°58' E 034°17'1615.8
2016-Jun-20 21:34N 33°03' E 033°59'1615.9
2016-Jun-20 20:34N 33°10' E 033°42'1616.0
2016-Jun-20 19:34N 33°17' E 033°25'1615.8
2016-Jun-20 18:34N 33°25' E 033°08'1515.2
2016-Jun-20 17:33N 33°32' E 032°52'1615.7
2016-Jun-20 16:34N 33°39' E 032°36'1616.0
2016-Jun-20 15:34N 33°47' E 032°19'1616.5
2016-Jun-20 14:34N 33°55' E 032°01'1716.8
2016-Jun-20 13:34N 34°02' E 031°43'1716.7
2016-Jun-20 12:33N 34°10' E 031°25'33415.2
2016-Jun-19 14:33N 37°28' E 025°52'84 2.1
2016-Jun-17 21:31N 37°34' E 024°06'1717.4
2016-Jun-17 20:33N 37°19' E 023°56'1717.2
2016-Jun-17 19:33N 37°04' E 023°45'1817.5
2016-Jun-17 18:33N 36°49' E 023°34'1817.8
2016-Jun-17 17:33N 36°33' E 023°23'23813.6
2016-Jun-17 00:06N 37°09' E 018°29'713.6
2016-Jun-16 23:33N 37°11' E 018°20'3113.9
2016-Jun-16 21:19N 37°20' E 017°43'1114.0
2016-Jun-16 20:33N 37°23' E 017°30'1414.0
2016-Jun-16 19:33N 37°26' E 017°13'1414.2
2016-Jun-16 18:33N 37°30' E 016°56'1414.0
2016-Jun-16 17:33N 37°34' E 016°38'1414.0
2016-Jun-16 16:33N 37°37' E 016°22'2713.7
2016-Jun-16 14:34N 37°46' E 015°49'1413.8
2016-Jun-16 13:33N 37°56' E 015°36'1212.5
2016-Jun-16 12:33N 38°08' E 015°34'1010.4
2016-Jun-16 11:33N 38°17' E 015°40'1010.0
2016-Jun-16 10:33N 38°25' E 015°49'5 5.2
2016-Jun-16 09:33N 38°27' E 015°54'0 0.0
2016-Jun-16 08:33N 38°27' E 015°54'0 0.0
2016-Jun-16 07:28N 38°27' E 015°54'0 0.0
2016-Jun-16 06:32N 38°27' E 015°54'0 0.0
2016-Jun-16 05:30N 38°27' E 015°54'0 0.0
2016-Jun-16 04:30N 38°27' E 015°54'  

Dump ship's entire track history